Time;durP1;ratioP1;P1;durP2;ratioP2;P2;SDS_P1;SDS_P2;PMS_P1;PMS_P2;Temp;Humidity;BMP_temperature;BMP_pressure;BME280_temperature;BME280_humidity;BME280_pressure;Samples;Min_cycle;Max_cycle;Signal;HPM_P1;HPM_P2
2021/06/21 00:00:09;;;;;;;25.97;5.97;;;;;;;23.85;67.75;100026.27;1820743;77;22233;-60
2021/06/21 00:02:55;;;;;;;23.00;5.90;;;;;;;23.75;67.77;100022.91;1732829;81;21146;-59
2021/06/21 00:05:28;;;;;;;19.42;5.00;;;;;;;23.86;67.39;100024.80;1807867;77;22222;-58
2021/06/21 00:08:02;;;;;;;21.77;5.65;;;;;;;23.84;67.30;100021.88;1852828;77;22175;-60
2021/06/21 00:10:49;;;;;;;18.37;5.33;;;;;;;23.66;67.50;100025.42;1783143;78;21188;-61
2021/06/21 00:13:22;;;;;;;18.65;5.50;;;;;;;23.76;67.21;100023.79;1829126;77;22531;-60
2021/06/21 00:15:55;;;;;;;19.85;5.22;;;;;;;23.73;67.08;100024.02;1813417;77;22210;-60
2021/06/21 00:18:28;;;;;;;23.67;5.45;;;;;;;23.70;66.92;100025.08;1844879;77;22548;-60
2021/06/21 00:21:02;;;;;;;22.52;6.08;;;;;;;23.57;67.00;100030.49;1812797;77;22202;-58
2021/06/21 00:23:49;;;;;;;21.85;7.17;;;;;;;23.46;66.97;100035.31;1731414;82;21704;-60
2021/06/21 00:26:22;;;;;;;16.20;5.60;;;;;;;23.44;66.99;100029.66;1824549;77;22201;-58
2021/06/21 00:28:55;;;;;;;9.73;3.20;;;;;;;23.39;67.09;100029.16;1813409;77;22154;-60
2021/06/21 00:31:42;;;;;;;10.13;3.47;;;;;;;23.31;67.18;100022.50;1760949;80;21203;-59
2021/06/21 00:34:15;;;;;;;17.70;3.85;;;;;;;23.31;67.58;100018.95;1834488;77;22179;-60
2021/06/21 00:36:48;;;;;;;12.40;3.85;;;;;;;23.30;67.51;100015.89;1794314;77;22606;-58
2021/06/21 00:39:34;;;;;;;15.43;4.58;;;;;;;23.09;67.91;100024.95;1770312;80;21135;-59
2021/06/21 00:42:08;;;;;;;18.62;5.03;;;;;;;23.04;68.08;100029.31;1834474;77;22180;-58
2021/06/21 00:44:41;;;;;;;23.90;4.05;;;;;;;23.06;67.64;100031.41;1849137;77;22174;-60
2021/06/21 00:47:14;;;;;;;15.83;2.62;;;;;;;22.95;67.62;100024.59;1816775;77;22150;-58
2021/06/21 00:49:47;;;;;;;8.90;3.30;;;;;;;22.89;67.73;100031.25;1816108;77;22214;-58
2021/06/21 00:52:33;;;;;;;9.88;2.40;;;;;;;22.78;67.77;100035.16;1761853;81;21217;-59
2021/06/21 00:55:08;;;;;;;9.38;1.60;;;;;;;22.78;67.85;100031.13;1830297;77;22201;-58
2021/06/21 00:57:41;;;;;;;12.55;2.42;;;;;;;22.70;67.86;100027.15;1850575;77;22151;-58
2021/06/21 01:00:27;;;;;;;8.48;2.12;;;;;;;22.61;67.91;100033.64;1779495;80;21299;-61
2021/06/21 01:03:04;;;;;;;7.33;2.47;;;;;;;22.60;68.10;100034.59;1834504;77;22175;-60
2021/06/21 01:05:36;;;;;;;5.50;2.10;;;;;;;22.53;68.32;100033.67;1808869;77;22214;-60
2021/06/21 01:08:22;;;;;;;4.72;2.60;;;;;;;22.51;68.43;100039.63;1740617;81;21127;-61
2021/06/21 01:10:56;;;;;;;5.83;2.80;;;;;;;22.56;68.41;100037.48;1814217;77;22198;-60
2021/06/21 01:13:38;;;;;;;11.85;2.87;;;;;;;22.58;68.44;100041.39;1829770;77;22124;-60
2021/06/21 01:16:27;;;;;;;9.25;3.33;;;;;;;22.58;68.33;100035.56;1809855;77;22209;-60
2021/06/21 01:19:52;;;;;;;9.18;3.33;;;;;;;22.55;68.41;100037.58;1834474;77;22176;-60
2021/06/21 01:23:13;;;;;;;6.08;2.98;;;;;;;22.42;68.73;100028.14;1827774;77;22163;-57
2021/06/21 01:26:16;;;;;;;12.65;3.37;;;;;;;22.38;68.99;100035.55;1813222;77;22201;-58
2021/06/21 01:29:45;;;;;;;10.35;4.25;;;;;;;22.37;69.13;100042.33;1852831;77;22571;-57
2021/06/21 01:32:39;;;;;;;10.50;3.65;;;;;;;22.37;69.17;100038.31;1834512;77;22183;-58
2021/06/21 01:35:26;;;;;;;12.40;4.58;;;;;;;22.39;69.20;100049.33;1819006;77;22265;-60
2021/06/21 01:38:23;;;;;;;13.03;4.73;;;;;;;22.43;69.04;100058.92;1756860;82;21471;-59
2021/06/21 01:40:59;;;;;;;14.03;4.65;;;;;;;22.51;69.08;100054.37;1808712;77;22597;-57
2021/06/21 01:43:36;;;;;;;15.45;4.78;;;;;;;22.55;68.96;100054.55;1829121;77;22155;-57
2021/06/21 01:46:27;;;;;;;10.45;4.25;;;;;;;22.56;69.01;100064.77;1743729;80;21718;-61
2021/06/21 01:49:08;;;;;;;16.35;4.87;;;;;;;22.64;68.98;100054.88;1834495;77;22167;-57
2021/06/21 01:51:42;;;;;;;17.62;4.75;;;;;;;22.54;69.50;100058.65;1784682;77;22237;-57
2021/06/21 01:54:29;;;;;;;16.27;4.70;;;;;;;22.47;69.70;100058.72;1738893;81;21542;-61
2021/06/21 01:57:04;;;;;;;13.78;5.45;;;;;;;22.48;70.02;100056.41;1834401;77;22168;-60
2021/06/21 01:59:37;;;;;;;16.12;5.08;;;;;;;22.50;70.08;100063.38;1834425;77;22173;-60
2021/06/21 02:02:11;;;;;;;13.10;5.17;;;;;;;22.51;70.21;100062.41;1840367;77;22128;-58
2021/06/21 02:04:44;;;;;;;20.12;5.65;;;;;;;22.51;70.28;100058.89;1829280;77;22204;-58
2021/06/21 02:07:18;;;;;;;13.28;5.83;;;;;;;22.53;70.44;100055.13;1834469;77;22176;-58
2021/06/21 02:09:52;;;;;;;15.32;5.45;;;;;;;22.65;70.15;100052.58;1814168;77;22178;-58
2021/06/21 02:12:39;;;;;;;18.42;5.60;;;;;;;22.64;70.15;100060.25;1742181;81;21174;-59
2021/06/21 02:15:14;;;;;;;18.32;6.20;;;;;;;22.72;70.06;100060.09;1823937;77;22198;-60
2021/06/21 02:17:47;;;;;;;14.20;4.83;;;;;;;22.75;70.07;100064.37;1835749;77;22177;-60
2021/06/21 02:20:21;;;;;;;21.37;6.45;;;;;;;22.79;70.08;100074.43;1821958;77;22206;-58
2021/06/21 02:22:55;;;;;;;19.75;6.55;;;;;;;22.72;70.39;100068.14;1821583;77;22618;-58
2021/06/21 02:25:41;;;;;;;15.23;5.17;;;;;;;22.78;70.29;100068.69;1776194;80;21344;-61
2021/06/21 02:28:14;;;;;;;17.35;5.72;;;;;;;22.80;70.43;100062.23;1820493;77;22185;-58
2021/06/21 02:30:48;;;;;;;23.18;8.03;;;;;;;22.85;70.51;100065.97;1812697;77;22194;-59
2021/06/21 02:33:22;;;;;;;17.65;6.30;;;;;;;22.96;70.23;100063.87;1834293;77;22619;-60
2021/06/21 02:35:55;;;;;;;18.45;6.10;;;;;;;23.01;70.24;100071.13;1806213;77;22213;-61
2021/06/21 02:38:42;;;;;;;18.37;6.12;;;;;;;23.01;70.31;100092.09;1731307;83;21150;-62
2021/06/21 02:41:15;;;;;;;13.15;5.75;;;;;;;23.09;70.33;100092.05;1798440;77;22180;-59
2021/06/21 02:43:49;;;;;;;21.00;5.58;;;;;;;23.11;70.36;100087.44;1834428;77;22176;-61
2021/06/21 02:46:28;;;;;;;15.88;5.28;;;;;;;23.18;70.27;100080.68;1804433;77;22237;-60
2021/06/21 02:49:02;;;;;;;17.25;6.50;;;;;;;23.17;70.40;100077.16;1850413;77;22120;-59
2021/06/21 02:51:44;;;;;;;17.55;5.97;;;;;;;23.19;70.51;100075.69;1805218;77;22174;-59
2021/06/21 02:54:27;;;;;;;20.08;5.97;;;;;;;23.28;70.41;100075.55;1835966;77;22134;-59
2021/06/21 02:57:28;;;;;;;16.82;5.42;;;;;;;23.33;70.26;100086.82;1761539;81;21158;-62
2021/06/21 03:00:03;;;;;;;18.55;6.08;;;;;;;23.49;69.94;100081.72;1826212;77;22174;-60
2021/06/21 03:02:36;;;;;;;15.10;5.83;;;;;;;23.55;69.80;100079.44;1830837;77;22191;-60
2021/06/21 03:05:11;;;;;;;14.23;5.80;;;;;;;23.59;69.71;100071.53;1817060;77;22170;-59
2021/06/21 03:07:45;;;;;;;12.50;5.37;;;;;;;23.64;69.72;100079.75;1826496;77;22182;-60
2021/06/21 03:10:32;;;;;;;11.60;5.40;;;;;;;23.64;69.72;100091.84;1760239;81;21159;-62
2021/06/21 03:13:07;;;;;;;12.90;4.78;;;;;;;23.72;69.65;100092.99;1826973;77;22140;-61
2021/06/21 03:15:41;;;;;;;9.93;4.42;;;;;;;23.76;69.58;100098.52;1816615;77;22616;-60
2021/06/21 03:18:27;;;;;;;13.18;4.58;;;;;;;23.80;69.61;100114.42;1761130;80;21162;-61
2021/06/21 03:21:00;;;;;;;9.25;4.45;;;;;;;23.80;69.78;100103.20;1832338;77;22172;-59
2021/06/21 03:23:34;;;;;;;10.98;4.45;;;;;;;23.84;69.77;100098.45;1819736;77;22175;-61
2021/06/21 03:26:08;;;;;;;11.68;4.72;;;;;;;23.86;69.86;100104.08;1805015;77;23177;-60
2021/06/21 03:28:41;;;;;;;15.95;4.30;;;;;;;23.90;69.86;100099.36;1833542;77;22144;-61
2021/06/21 03:33:49;;;;;;;8.60;4.37;;;;;;;23.99;69.94;100094.69;1832416;77;25792;-61
2021/06/21 03:36:23;;;;;;;12.30;4.92;;;;;;;24.05;69.74;100088.87;1807961;77;22206;-61
2021/06/21 03:38:56;;;;;;;13.72;3.80;;;;;;;24.16;69.53;100090.75;1825623;77;22155;-61
2021/06/21 03:41:43;;;;;;;9.83;4.72;;;;;;;24.25;69.45;100098.61;1761074;81;21166;-62
2021/06/21 03:44:17;;;;;;;9.10;4.67;;;;;;;24.39;69.41;100096.23;1827993;77;22151;-61
2021/06/21 03:46:50;;;;;;;12.23;5.20;;;;;;;24.50;69.40;100095.44;1904121;74;22144;-59
2021/06/21 03:49:24;;;;;;;10.53;5.28;;;;;;;24.59;69.07;100092.03;1819648;77;22583;-59
2021/06/21 03:51:57;;;;;;;11.33;4.62;;;;;;;24.71;69.46;100088.04;1832750;77;22163;-59
2021/06/21 03:54:45;;;;;;;7.55;4.25;;;;;;;24.77;69.09;100091.14;1791356;80;21200;-60
2021/06/21 03:57:19;;;;;;;9.18;4.03;;;;;;;24.89;69.06;100093.40;1849488;77;22127;-61
2021/06/21 03:59:52;;;;;;;6.72;3.50;;;;;;;24.98;68.88;100094.52;1821204;77;22217;-61
2021/06/21 04:02:26;;;;;;;8.35;4.30;;;;;;;25.02;69.13;100096.46;1820786;77;22162;-61
2021/06/21 04:05:00;;;;;;;8.33;4.30;;;;;;;25.06;69.04;100102.85;1844740;77;22167;-61
2021/06/21 04:07:34;;;;;;;6.55;3.67;;;;;;;25.13;68.91;100111.80;1822107;77;22135;-59
2021/06/21 04:10:22;;;;;;;11.10;4.05;;;;;;;25.09;68.66;100120.12;1763931;80;21127;-62
2021/06/21 04:12:55;;;;;;;10.98;5.00;;;;;;;25.17;68.81;100118.16;1818917;77;28382;-61
2021/06/21 04:15:30;;;;;;;7.95;5.12;;;;;;;25.21;68.63;100114.25;1817731;77;22621;-61
2021/06/21 04:18:17;;;;;;;13.75;6.55;;;;;;;25.21;68.49;100122.33;1760273;81;21281;-60
2021/06/21 04:20:50;;;;;;;17.98;5.45;;;;;;;25.25;68.70;100110.82;1815319;77;22167;-59
2021/06/21 04:23:24;;;;;;;11.48;4.58;;;;;;;25.32;68.65;100117.44;1852807;77;22175;-61
2021/06/21 04:25:57;;;;;;;12.07;4.58;;;;;;;25.38;68.44;100112.92;1807489;77;22160;-61
2021/06/21 04:28:42;;;;;;;13.05;4.85;;;;;;;25.26;68.61;100110.34;1761359;80;21139;-60
2021/06/21 04:31:16;;;;;;;9.10;4.50;;;;;;;25.30;68.84;100109.13;1809512;77;22198;-58
2021/06/21 04:33:49;;;;;;;11.78;7.05;;;;;;;25.34;69.08;100111.95;1832603;77;22167;-58
2021/06/21 04:36:23;;;;;;;12.23;9.30;;;;;;;25.39;69.05;100112.42;1804679;77;22206;-61
2021/06/21 04:38:56;;;;;;;11.83;6.83;;;;;;;25.44;69.17;100110.76;1852820;77;22175;-58
2021/06/21 04:41:29;;;;;;;14.10;6.62;;;;;;;25.50;69.22;100111.63;1806553;77;22174;-60
2021/06/21 04:44:14;;;;;;;10.18;4.72;;;;;;;25.54;69.21;100115.28;1755361;80;21138;-63
2021/06/21 04:46:48;;;;;;;12.40;4.12;;;;;;;25.65;68.85;100113.06;1813112;77;22163;-61
2021/06/21 04:49:21;;;;;;;8.80;4.58;;;;;;;25.71;68.85;100111.73;1834403;77;22176;-62
2021/06/21 04:51:55;;;;;;;10.13;4.58;;;;;;;25.76;68.72;100109.53;1834017;77;22176;-61
2021/06/21 04:54:42;;;;;;;10.03;4.10;;;;;;;25.69;69.15;100118.58;1764532;80;21099;-59
2021/06/21 04:57:16;;;;;;;14.33;6.42;;;;;;;25.78;69.20;100120.17;1811206;77;22162;-59
2021/06/21 04:59:50;;;;;;;14.68;9.85;;;;;;;25.80;69.00;100116.39;1828946;77;22222;-58
2021/06/21 05:02:23;;;;;;;18.75;7.28;;;;;;;25.76;69.22;100122.14;1835217;77;22537;-58
2021/06/21 05:04:57;;;;;;;8.85;4.95;;;;;;;25.78;69.15;100125.56;1833459;77;22221;-61
2021/06/21 05:07:54;;;;;;;10.00;4.60;;;;;;;25.76;68.91;100136.95;1757853;81;21132;-59
2021/06/21 05:10:28;;;;;;;15.00;6.03;;;;;;;25.81;68.54;100133.41;1818372;77;22563;-59
2021/06/21 05:13:02;;;;;;;13.30;6.47;;;;;;;25.93;68.36;100132.42;1821512;77;22184;-60
2021/06/21 05:15:35;;;;;;;21.27;7.30;;;;;;;25.97;68.40;100135.72;1836614;77;22194;-60
2021/06/21 05:18:09;;;;;;;13.98;6.28;;;;;;;25.98;68.76;100138.30;1820349;77;22189;-59
2021/06/21 05:20:42;;;;;;;18.55;8.10;;;;;;;26.15;68.16;100135.23;1835505;77;22633;-61
2021/06/21 05:23:16;;;;;;;21.15;7.40;;;;;;;26.25;68.58;100134.34;1818392;77;22142;-58
2021/06/21 05:26:01;;;;;;;19.95;7.03;;;;;;;26.37;69.05;100134.33;1728256;83;21146;-59
2021/06/21 05:28:35;;;;;;;19.82;7.58;;;;;;;26.63;69.73;100136.67;1850412;77;22175;-61
2021/06/21 05:31:08;;;;;;;18.42;7.10;;;;;;;26.77;69.69;100134.14;1800786;77;22205;-59
2021/06/21 05:33:43;;;;;;;20.60;7.20;;;;;;;26.93;68.87;100133.25;1834454;77;22180;-61
2021/06/21 05:36:16;;;;;;;22.17;7.95;;;;;;;27.07;69.20;100125.30;1827289;77;22189;-59
2021/06/21 05:39:02;;;;;;;16.30;7.42;;;;;;;27.25;69.51;100126.06;1794905;79;21146;-59
2021/06/21 05:41:36;;;;;;;19.87;7.58;;;;;;;27.48;69.40;100121.86;1817203;77;22194;-61
2021/06/21 05:44:09;;;;;;;18.65;7.58;;;;;;;27.67;68.40;100123.31;1852779;77;22135;-60
2021/06/21 05:46:54;;;;;;;19.85;7.65;;;;;;;27.81;68.33;100128.83;1790674;80;21629;-60
2021/06/21 05:49:29;;;;;;;21.23;7.60;;;;;;;28.04;67.35;100122.70;1823437;77;22163;-59
2021/06/21 05:52:03;;;;;;;19.05;7.25;;;;;;;28.19;67.38;100125.05;1826447;77;22638;-59
2021/06/21 05:54:37;;;;;;;23.90;7.67;;;;;;;28.32;67.01;100126.97;1831830;77;22579;-61
2021/06/21 05:57:10;;;;;;;17.82;8.35;;;;;;;28.50;66.61;100127.64;1821513;77;22135;-59
2021/06/21 05:59:56;;;;;;;21.55;7.20;;;;;;;28.60;65.85;100131.22;1764541;80;21230;-61
2021/06/21 06:02:29;;;;;;;22.98;7.17;;;;;;;28.81;65.67;100128.87;1837297;77;22182;-60
2021/06/21 06:05:05;;;;;;;26.33;7.78;;;;;;;28.93;65.45;100129.56;1825762;77;22646;-59
2021/06/21 06:07:38;;;;;;;23.05;8.65;;;;;;;29.11;65.32;100136.96;1815299;77;28413;-59
2021/06/21 06:10:12;;;;;;;18.12;7.28;;;;;;;29.31;64.53;100132.34;1802737;77;22213;-58
2021/06/21 06:12:45;;;;;;;22.55;7.60;;;;;;;29.55;63.75;100122.91;1811459;77;22174;-59
2021/06/21 06:15:18;;;;;;;20.90;8.40;;;;;;;29.75;63.37;100123.67;1819709;77;22194;-60
2021/06/21 06:18:05;;;;;;;18.12;7.40;;;;;;;29.90;62.55;100123.49;1775593;80;21143;-60
2021/06/21 06:20:38;;;;;;;21.02;7.35;;;;;;;30.16;61.85;100120.59;1793405;77;22205;-59
2021/06/21 06:23:11;;;;;;;17.35;7.00;;;;;;;30.33;61.25;100125.69;1816607;77;23190;-58
2021/06/21 06:25:44;;;;;;;18.57;6.70;;;;;;;30.45;60.64;100116.83;1789932;77;22241;-59
2021/06/21 06:28:31;;;;;;;21.00;6.60;;;;;;;30.57;60.19;100127.81;1740475;82;21550;-60
2021/06/21 06:31:04;;;;;;;17.00;6.83;;;;;;;30.77;59.42;100126.30;1800751;77;22222;-59
2021/06/21 06:33:38;;;;;;;19.17;6.00;;;;;;;30.85;58.79;100121.78;1811868;77;22146;-59
2021/06/21 06:36:11;;;;;;;18.27;6.78;;;;;;;30.90;58.28;100125.89;1773591;77;22217;-60
2021/06/21 06:38:47;;;;;;;17.70;6.00;;;;;;;30.91;57.46;100125.72;1825696;77;22547;-60
2021/06/21 06:41:35;;;;;;;14.58;6.47;;;;;;;30.85;57.21;100131.81;1776666;80;21172;-59
2021/06/21 06:44:08;;;;;;;18.82;5.95;;;;;;;30.86;56.76;100126.72;1807711;77;22181;-60
2021/06/21 06:46:41;;;;;;;17.05;6.15;;;;;;;30.84;56.36;100129.58;1810654;77;22235;-60
2021/06/21 06:49:14;;;;;;;15.70;6.60;;;;;;;30.60;56.72;100128.86;1819916;77;22553;-60
2021/06/21 06:51:51;;;;;;;21.62;6.45;;;;;;;30.53;56.35;100134.05;1823046;77;22199;-60
2021/06/21 06:54:33;;;;;;;16.48;6.45;;;;;;;30.51;56.81;100133.34;1831272;77;22162;-60
2021/06/21 06:57:15;;;;;;;19.15;6.20;;;;;;;30.62;56.38;100130.08;1760741;81;21854;-60
2021/06/21 06:59:49;;;;;;;22.85;6.08;;;;;;;30.68;54.18;100132.17;1831983;77;22240;-60
2021/06/21 07:02:22;;;;;;;17.10;6.83;;;;;;;30.70;54.59;100128.77;1819408;77;22159;-61
2021/06/21 07:04:55;;;;;;;19.85;5.60;;;;;;;30.52;54.70;100130.11;1827633;77;22171;-60
2021/06/21 07:07:41;;;;;;;23.62;6.15;;;;;;;30.47;55.40;100133.30;1758409;80;21143;-62
2021/06/21 07:10:14;;;;;;;19.57;6.72;;;;;;;30.66;55.63;100134.20;1799991;77;22212;-62
2021/06/21 07:12:48;;;;;;;20.60;6.72;;;;;;;30.73;55.69;100133.89;1852782;77;22127;-62
2021/06/21 07:15:21;;;;;;;24.15;7.25;;;;;;;30.82;55.17;100138.91;1821146;77;22202;-62
2021/06/21 07:17:55;;;;;;;27.20;6.80;;;;;;;30.84;55.12;100136.89;1825378;77;22132;-65
2021/06/21 07:20:41;;;;;;;21.65;6.40;;;;;;;30.98;55.69;100141.74;1773382;80;21167;-65
2021/06/21 07:23:14;;;;;;;22.65;5.75;;;;;;;31.25;54.70;100133.63;1832701;77;22180;-65
2021/06/21 07:25:47;;;;;;;25.32;6.53;;;;;;;31.39;53.67;100135.77;1828499;77;22668;-65
2021/06/21 07:28:34;;;;;;;20.57;6.25;;;;;;;31.48;53.93;100129.86;1783268;79;21280;-65
2021/06/21 07:31:07;;;;;;;19.35;5.55;;;;;;;31.69;53.50;100124.54;1810752;77;22202;-65
2021/06/21 07:33:40;;;;;;;25.97;5.83;;;;;;;31.82;52.98;100132.27;1837534;77;22147;-65
2021/06/21 07:36:14;;;;;;;27.73;6.47;;;;;;;31.94;51.86;100132.81;1788599;77;22576;-65
2021/06/21 07:38:47;;;;;;;22.98;6.00;;;;;;;31.86;51.96;100135.84;1820187;77;22185;-65
2021/06/21 07:41:20;;;;;;;23.12;6.83;;;;;;;31.67;51.10;100143.72;1808447;77;22211;-65
2021/06/21 07:43:53;;;;;;;25.20;5.12;;;;;;;31.57;50.67;100147.94;1837751;77;22577;-65
2021/06/21 07:46:27;;;;;;;24.85;6.28;;;;;;;31.31;51.17;100146.59;1821448;77;22659;-65
2021/06/21 07:49:13;;;;;;;20.30;5.28;;;;;;;31.21;50.52;100156.22;1740216;82;21157;-66
2021/06/21 07:51:46;;;;;;;17.55;5.30;;;;;;;31.05;51.15;100154.70;1820313;77;22213;-66
2021/06/21 07:54:20;;;;;;;27.02;6.08;;;;;;;31.23;52.88;100150.61;1829762;77;22173;-66
2021/06/21 07:56:53;;;;;;;21.75;5.78;;;;;;;31.22;51.20;100155.20;1809882;77;22182;-65
2021/06/21 07:59:26;;;;;;;29.42;6.58;;;;;;;31.32;50.49;100161.89;1833241;77;22120;-66
2021/06/21 08:01:59;;;;;;;22.10;5.33;;;;;;;31.21;51.87;100160.78;1849489;77;22175;-65
2021/06/21 08:04:33;;;;;;;20.85;5.72;;;;;;;31.39;52.42;100160.24;1818103;77;22189;-66
2021/06/21 08:07:20;;;;;;;26.42;6.05;;;;;;;31.59;52.11;100164.08;1731691;83;21181;-66
2021/06/21 08:09:53;;;;;;;33.00;6.53;;;;;;;31.94;51.68;100164.11;1820365;77;22186;-66
2021/06/21 08:12:26;;;;;;;36.13;7.05;;;;;;;32.24;51.75;100172.70;1813601;77;22606;-66
2021/06/21 08:14:59;;;;;;;27.40;6.33;;;;;;;32.46;50.70;100174.84;1812336;77;22606;-67
2021/06/21 08:17:45;;;;;;;22.40;5.85;;;;;;;32.78;49.63;100177.27;1761789;81;21162;-67
2021/06/21 08:20:18;;;;;;;24.75;6.55;;;;;;;32.96;49.62;100168.11;1821277;77;22260;-67
2021/06/21 08:22:51;;;;;;;17.85;5.67;;;;;;;33.07;48.35;100169.63;1829497;77;22131;-67
2021/06/21 08:25:25;;;;;;;26.17;6.28;;;;;;;33.18;49.54;100169.78;1821070;77;22210;-66
2021/06/21 08:27:59;;;;;;;28.57;7.08;;;;;;;33.46;48.88;100166.72;1851823;77;22124;-66
2021/06/21 08:30:32;;;;;;;23.65;5.83;;;;;;;33.76;49.22;100163.73;1816054;77;22182;-67
2021/06/21 08:33:06;;;;;;;29.20;7.25;;;;;;;34.13;48.24;100170.91;1814507;77;22222;-66
2021/06/21 08:35:39;;;;;;;26.75;6.40;;;;;;;34.40;45.01;100170.09;1835882;77;22165;-67
2021/06/21 08:38:12;;;;;;;25.60;6.05;;;;;;;34.58;48.14;100171.70;1829968;77;22155;-66
2021/06/21 08:40:46;;;;;;;27.17;7.03;;;;;;;35.09;47.71;100170.62;1814191;77;22257;-66
2021/06/21 08:43:19;;;;;;;33.15;7.42;;;;;;;35.61;47.76;100166.70;1821258;77;22163;-66
2021/06/21 08:45:52;;;;;;;20.90;5.90;;;;;;;36.08;47.20;100161.86;1814937;77;22210;-66
2021/06/21 08:48:29;;;;;;;21.60;6.40;;;;;;;36.45;45.17;100161.85;1818945;77;22185;-66
2021/06/21 08:51:04;;;;;;;24.70;6.10;;;;;;;36.56;43.13;100167.36;1838737;77;22631;-67
2021/06/21 08:53:50;;;;;;;23.15;6.42;;;;;;;36.28;40.83;100169.47;1744888;82;21607;-67
2021/06/21 08:56:23;;;;;;;28.23;7.25;;;;;;;35.55;41.69;100176.50;1824070;77;22217;-67
2021/06/21 08:58:57;;;;;;;24.45;5.58;;;;;;;35.50;42.50;100176.24;1816688;77;22623;-66
2021/06/21 09:01:44;;;;;;;28.57;6.35;;;;;;;35.69;43.60;100182.17;1775820;80;21195;-68
2021/06/21 09:04:17;;;;;;;26.73;6.85;;;;;;;36.14;42.28;100181.63;1852943;77;22161;-67
2021/06/21 09:06:51;;;;;;;44.05;6.45;;;;;;;36.34;39.28;100176.05;1903623;74;22130;-67
2021/06/21 09:13:21;;;;;;;25.12;5.75;;;;;;;36.15;39.42;100187.97;1834402;77;22587;-66
2021/06/21 09:15:56;;;;;;;24.90;6.05;;;;;;;36.36;40.05;100180.81;1809142;77;22213;-67
2021/06/21 09:18:39;;;;;;;28.60;6.92;;;;;;;36.78;39.92;100185.19;1818664;77;27974;-67
2021/06/21 09:21:28;;;;;;;31.97;6.00;;;;;;;36.98;38.08;100185.41;1828064;77;22248;-67
2021/06/21 09:28:14;;;;;;;26.57;6.12;;;;;;;36.98;38.39;100189.52;1828315;77;22180;-67
2021/06/21 09:30:50;;;;;;;29.57;6.70;;;;;;;36.95;37.36;100186.59;1833760;77;22170;-67
2021/06/21 09:33:37;;;;;;;24.12;5.50;;;;;;;36.84;38.35;100189.36;1788270;80;21335;-67
2021/06/21 09:36:25;;;;;;;23.20;5.70;;;;;;;37.16;39.00;100185.75;1806379;77;22203;-66
2021/06/21 09:39:22;;;;;;;22.15;6.00;;;;;;;37.17;35.55;100185.23;1834372;77;22128;-66
2021/06/21 09:42:23;;;;;;;20.05;6.30;;;;;;;36.91;36.29;100186.16;1834389;77;22584;-67
2021/06/21 09:44:58;;;;;;;26.05;5.80;;;;;;;36.91;36.22;100185.29;1822320;77;22623;-66
2021/06/21 09:47:44;;;;;;;22.20;6.37;;;;;;;36.85;35.87;100194.33;1764349;81;21158;-68
2021/06/21 09:50:21;;;;;;;24.72;5.03;;;;;;;36.65;36.54;100186.75;1822660;77;22207;-67
2021/06/21 09:52:59;;;;;;;23.45;6.33;;;;;;;36.93;38.58;100185.94;1852878;77;22159;-66
2021/06/21 09:55:41;;;;;;;24.20;6.20;;;;;;;37.72;39.37;100183.20;1818316;77;22194;-66
2021/06/21 09:58:21;;;;;;;23.47;5.55;;;;;;;38.18;36.45;100172.11;1851769;77;22163;-67
2021/06/21 10:01:11;;;;;;;22.25;5.33;;;;;;;38.36;36.40;100177.02;1809663;77;22240;-67
2021/06/21 10:03:58;;;;;;;34.53;7.22;;;;;;;38.36;35.94;100179.27;1758072;81;21182;-66
2021/06/21 10:06:38;;;;;;;26.40;6.40;;;;;;;37.80;34.27;100183.01;1823498;77;22197;-65
2021/06/21 10:09:11;;;;;;;20.88;5.65;;;;;;;37.28;35.30;100182.46;1834426;77;22180;-65
2021/06/21 10:11:57;;;;;;;15.40;4.70;;;;;;;37.07;35.86;100180.61;1694109;84;21158;-65
2021/06/21 10:14:31;;;;;;;21.33;6.12;;;;;;;37.24;36.57;100180.66;1850183;77;22627;-65
2021/06/21 10:17:05;;;;;;;24.10;5.15;;;;;;;37.27;36.68;100172.53;1831330;77;22191;-67
2021/06/21 10:19:53;;;;;;;17.60;4.87;;;;;;;37.33;35.34;100174.48;1787049;80;21310;-67
2021/06/21 10:22:28;;;;;;;24.90;6.80;;;;;;;37.35;36.38;100170.47;1831586;77;28066;-67
2021/06/21 10:25:01;;;;;;;24.82;5.90;;;;;;;37.67;36.03;100174.19;1826388;77;22202;-67
2021/06/21 10:27:47;;;;;;;15.83;4.50;;;;;;;37.91;35.87;100170.08;1753949;81;21139;-67
2021/06/21 10:30:21;;;;;;;21.68;5.25;;;;;;;38.47;35.61;100167.34;1818981;77;22214;-67
2021/06/21 10:32:55;;;;;;;22.42;5.22;;;;;;;38.74;34.29;100168.78;1830890;77;22581;-67
2021/06/21 10:35:31;;;;;;;22.37;6.75;;;;;;;38.81;34.05;100169.63;1820117;77;22225;-66
2021/06/21 10:38:05;;;;;;;20.90;6.08;;;;;;;38.94;33.63;100172.94;1831907;77;20151;-66
2021/06/21 10:40:54;;;;;;;16.20;5.72;;;;;;;39.09;34.65;100165.30;1809149;77;22225;-66
2021/06/21 10:43:50;;;;;;;16.67;4.58;;;;;;;39.36;32.36;100167.20;1765744;80;21295;-67
2021/06/21 10:46:28;;;;;;;18.32;5.78;;;;;;;38.87;31.94;100165.21;1807879;77;22633;-66
2021/06/21 10:49:19;;;;;;;20.65;4.92;;;;;;;38.67;32.68;100168.23;1811462;77;22565;-66
2021/06/21 10:51:52;;;;;;;19.70;4.78;;;;;;;38.51;32.42;100170.00;1834383;77;22193;-66
2021/06/21 10:54:26;;;;;;;16.42;4.87;;;;;;;38.43;31.88;100165.55;1852606;77;22203;-66
2021/06/21 10:56:59;;;;;;;27.15;6.25;;;;;;;38.31;32.80;100167.17;1827630;77;22195;-66
2021/06/21 10:59:33;;;;;;;18.42;5.92;;;;;;;38.32;32.54;100168.36;1826149;77;22163;-66
2021/06/21 11:02:10;;;;;;;16.55;5.47;;;;;;;38.34;33.01;100164.88;1833759;77;22619;-66
2021/06/21 11:04:54;;;;;;;21.33;4.90;;;;;;;38.44;33.27;100168.63;1727871;82;21174;-66
2021/06/21 11:07:27;;;;;;;12.95;5.25;;;;;;;38.58;33.74;100161.78;1811245;77;22186;-64
2021/06/21 11:10:02;;;;;;;19.50;5.25;;;;;;;38.87;34.12;100160.54;1821051;77;22249;-63
2021/06/21 11:12:40;;;;;;;19.42;5.50;;;;;;;39.09;31.54;100154.84;1834564;77;22179;-65
2021/06/21 11:15:16;;;;;;;17.95;5.90;;;;;;;38.62;31.53;100168.56;1836863;77;22194;-65
2021/06/21 11:17:55;;;;;;;17.60;6.45;;;;;;;38.31;32.13;100165.30;1825802;77;22607;-65
2021/06/21 11:20:39;;;;;;;19.45;5.85;;;;;;;38.24;32.28;100160.30;1820164;77;22641;-65
2021/06/21 11:23:38;;;;;;;17.07;6.17;;;;;;;38.28;33.96;100162.09;1834489;77;22182;-65
2021/06/21 11:26:12;;;;;;;22.98;5.58;;;;;;;38.70;34.75;100162.00;1811588;77;22258;-64
2021/06/21 11:28:49;;;;;;;22.80;6.45;;;;;;;39.33;34.97;100154.73;1833064;77;22615;-64
2021/06/21 11:31:35;;;;;;;;;;;;;;;39.79;34.76;100163.09;1776483;80;21153;-64
2021/06/21 11:34:08;;;;;;;17.40;5.33;;;;;;;40.35;33.88;100150.55;1821178;77;22175;-64
2021/06/21 11:36:47;;;;;;;17.42;6.12;;;;;;;40.74;33.93;100159.63;1815813;77;22227;-63
2021/06/21 11:39:30;;;;;;;20.32;6.35;;;;;;;41.17;32.92;100154.40;1832437;77;22176;-64
2021/06/21 11:42:06;;;;;;;27.58;6.60;;;;;;;41.16;32.75;100154.95;1819995;77;22210;-63
2021/06/21 11:44:51;;;;;;;22.67;5.92;;;;;;;41.28;32.90;100166.08;1788163;80;21174;-64
2021/06/21 11:47:31;;;;;;;21.60;6.12;;;;;;;41.65;32.69;100160.30;1829224;77;22195;-65
2021/06/21 11:50:12;;;;;;;20.97;5.85;;;;;;;41.97;32.41;100160.13;1809791;77;22272;-64
2021/06/21 11:52:48;;;;;;;17.92;5.70;;;;;;;42.13;32.18;100155.34;1821437;77;23297;-64
2021/06/21 11:55:22;;;;;;;20.32;5.83;;;;;;;42.14;31.83;100157.59;1819560;77;22238;-63
2021/06/21 11:57:57;;;;;;;29.35;8.10;;;;;;;41.89;30.27;100159.89;1850669;77;22632;-63
2021/06/21 12:00:35;;;;;;;22.70;6.97;;;;;;;41.08;30.98;100159.86;1799972;77;28588;-64
2021/06/21 12:03:10;;;;;;;22.30;7.10;;;;;;;40.62;31.87;100154.52;1832722;77;22750;-63
2021/06/21 12:05:55;;;;;;;16.52;5.72;;;;;;;40.39;32.24;100155.10;1772160;80;21353;-63
2021/06/21 12:08:35;;;;;;;19.37;6.05;;;;;;;40.28;32.14;100160.25;1829665;77;22630;-64
2021/06/21 12:11:19;;;;;;;18.62;5.65;;;;;;;40.17;33.18;100159.53;1805018;77;22202;-63
2021/06/21 12:14:04;;;;;;;19.55;5.80;;;;;;;40.25;33.78;100154.31;1832240;77;22354;-63
2021/06/21 12:16:51;;;;;;;20.45;6.58;;;;;;;40.40;33.81;100149.90;1726563;83;21166;-63
2021/06/21 12:19:24;;;;;;;20.32;6.00;;;;;;;40.63;33.47;100147.91;1834996;77;22201;-63